Terminal Aerodrome Forecast
Issued by NWS Green Bay, WI

Home | Current Version | Previous Version | Text Only | Print | Product List | Glossary Off
Versions: 1 2 3 4 5 6 7 8 9 10 11 12 13 14 15 16 17 18 19 20 21 22 23 24 25 26 27 28 29 30 31 32 33 34

000
FTUS43 KGRB 290500
TAFGRB
TAF
KGRB 290532Z 2906/3006 19003KT P6SM SCT250
     FM290800 VRB03KT 5SM BR SCT250
     FM291500 33008G15KT 6SM BR SCT015 BKN060
     FM291700 35010G18KT P6SM VCSH SCT012 OVC025
      TEMPO 2917/2920 5SM -SHRA BR BKN012
     FM292000 02012G20KT P6SM OVC020=

USA.gov is the U.S. government's official web portal to all federal, state and local government web resources and services.